Time;durP1;ratioP1;P1;durP2;ratioP2;P2;SDS_P1;SDS_P2;PMS_P1;PMS_P2;Temp;Humidity;BMP_temperature;BMP_pressure;BME280_temperature;BME280_humidity;BME280_pressure;Samples;Min_cycle;Max_cycle;Signal;HPM_P1;HPM_P2
2022/06/28 00:02:00;;;;;;;13.90;8.10;;;;;;;24.75;48.38;99627.34;5092282;28;20040;-71
2022/06/28 00:04:28;;;;;;;13.40;8.00;;;;;;;24.78;48.20;99634.25;5092267;28;20090;-72
2022/06/28 00:06:55;;;;;;;14.60;7.00;;;;;;;24.80;48.52;99646.00;5092331;28;20044;-71
2022/06/28 00:09:23;;;;;;;16.63;8.07;;;;;;;24.77;48.25;99633.44;5092130;28;20056;-66
2022/06/28 00:11:50;;;;;;;11.82;7.60;;;;;;;24.73;48.61;99644.06;5092434;28;20048;-69
2022/06/28 00:17:04;;;;;;;17.10;7.85;;;;;;;24.66;48.67;99644.13;5092346;28;20051;-69
2022/06/28 00:19:31;;;;;;;21.35;8.05;;;;;;;24.63;49.05;99649.84;5092346;28;20162;-69
2022/06/28 00:21:58;;;;;;;14.30;7.90;;;;;;;24.59;48.93;99649.06;5092422;28;20051;-74
2022/06/28 00:24:25;;;;;;;14.73;7.35;;;;;;;24.57;49.02;99648.69;5092366;28;20479;-73
2022/06/28 00:26:52;;;;;;;15.77;7.10;;;;;;;24.56;48.98;99656.41;5093973;28;20522;-73
2022/06/28 00:29:19;;;;;;;19.58;7.32;;;;;;;24.52;48.92;99654.84;5078221;28;20047;-73
2022/06/28 00:31:46;;;;;;;23.17;8.10;;;;;;;24.49;49.23;99644.31;5094887;28;20052;-74
2022/06/28 00:34:13;;;;;;;15.35;7.78;;;;;;;24.46;49.44;99654.50;5075766;28;20091;-73
2022/06/28 00:36:41;;;;;;;13.52;7.80;;;;;;;24.42;49.49;99656.56;5086555;28;20131;-73
2022/06/28 00:39:08;;;;;;;18.35;7.70;;;;;;;24.39;49.47;99659.47;5095692;28;20052;-74
2022/06/28 00:41:37;;;;;;;17.83;7.60;;;;;;;24.39;49.89;99662.31;5095903;28;20056;-68
2022/06/28 00:44:04;;;;;;;21.23;7.60;;;;;;;24.35;49.81;99647.31;5095852;28;20146;-69
2022/06/28 00:46:33;;;;;;;12.70;8.00;;;;;;;24.34;49.88;99654.22;5095958;28;20439;-69
2022/06/28 00:49:02;;;;;;;18.65;7.53;;;;;;;24.31;49.90;99652.22;5095742;28;20059;-69
2022/06/28 00:51:29;;;;;;;21.73;7.68;;;;;;;24.29;50.08;99661.19;5096695;28;20040;-69
2022/06/28 00:53:57;;;;;;;12.45;6.82;;;;;;;24.30;50.06;99659.13;5095354;28;20060;-68
2022/06/28 00:56:24;;;;;;;15.90;7.95;;;;;;;24.30;49.92;99659.94;5095764;28;20063;-68
2022/06/28 00:58:55;;;;;;;13.43;7.22;;;;;;;24.30;50.05;99662.78;5095552;28;20460;-69
2022/06/28 01:01:24;;;;;;;14.27;8.27;;;;;;;24.31;50.30;99667.22;5095593;28;20060;-69
2022/06/28 01:03:52;;;;;;;13.90;7.85;;;;;;;24.28;50.22;99667.28;5095411;28;20507;-68
2022/06/28 01:06:19;;;;;;;14.25;7.97;;;;;;;24.28;50.30;99670.91;5095873;28;20059;-69
2022/06/28 01:08:48;;;;;;;22.25;7.85;;;;;;;24.26;50.33;99673.41;5095188;28;20055;-69
2022/06/28 01:11:21;;;;;;;14.68;7.38;;;;;;;24.26;50.51;99675.41;5095532;28;20180;-67
2022/06/28 01:13:59;;;;;;;15.60;7.40;;;;;;;24.25;50.41;99671.75;5094961;28;20040;-68
2022/06/28 01:16:27;;;;;;;19.38;8.40;;;;;;;24.22;50.58;99680.34;5095394;28;20071;-73
2022/06/28 01:18:55;;;;;;;18.15;8.63;;;;;;;24.18;50.79;99679.56;5095193;28;20051;-75
2022/06/28 01:21:27;;;;;;;15.05;7.65;;;;;;;24.17;50.86;99677.94;5095206;28;20526;-74
2022/06/28 01:23:57;;;;;;;12.13;8.00;;;;;;;24.10;51.27;99675.19;5095331;28;20464;-74
2022/06/28 01:26:25;;;;;;;16.80;8.88;;;;;;;24.12;51.19;99675.53;5094777;28;20097;-73
2022/06/28 01:28:52;;;;;;;13.35;7.75;;;;;;;24.12;51.60;99678.38;5083937;28;20056;-73
2022/06/28 01:31:23;;;;;;;15.10;8.07;;;;;;;24.12;51.31;99675.53;5074471;28;20504;-68
2022/06/28 01:33:52;;;;;;;15.27;7.88;;;;;;;24.10;51.46;99678.81;5074499;28;20048;-68
2022/06/28 01:36:20;;;;;;;11.98;7.75;;;;;;;24.10;51.76;99678.03;5074745;28;20083;-67
2022/06/28 01:38:47;;;;;;;13.30;7.93;;;;;;;24.07;51.75;99679.66;5074070;28;20080;-70
2022/06/28 01:41:32;;;;;;;11.35;7.80;;;;;;;24.06;51.80;99678.03;5094847;28;20052;-68
2022/06/28 01:44:02;;;;;;;16.30;7.50;;;;;;;24.03;51.96;99680.91;5094737;28;20066;-71
2022/06/28 01:46:30;;;;;;;12.30;7.60;;;;;;;24.03;52.09;99684.56;5094519;28;20075;-71
2022/06/28 01:48:57;;;;;;;9.70;8.10;;;;;;;24.01;52.41;99681.31;5094776;28;20072;-70
2022/06/28 01:51:24;;;;;;;14.82;8.88;;;;;;;24.01;52.46;99686.22;5094866;28;20063;-70
2022/06/28 01:53:51;;;;;;;15.95;8.57;;;;;;;23.99;52.30;99685.81;5094258;28;20052;-70
2022/06/28 01:56:18;;;;;;;16.67;7.60;;;;;;;23.96;52.54;99689.50;5094666;28;20153;-72
2022/06/28 01:58:45;;;;;;;22.20;8.13;;;;;;;23.93;52.67;99690.31;5094506;28;20052;-71
2022/06/28 02:01:13;;;;;;;17.30;7.82;;;;;;;23.92;52.81;99688.72;5094553;28;20481;-72
2022/06/28 02:03:43;;;;;;;12.50;8.02;;;;;;;23.91;52.94;99687.06;5094371;28;20044;-71
2022/06/28 02:06:10;;;;;;;11.93;7.95;;;;;;;23.91;53.04;99687.88;5094597;28;20125;-74
2022/06/28 02:08:38;;;;;;;17.40;8.30;;;;;;;23.93;53.24;99685.44;5076156;28;20048;-74
2022/06/28 02:11:05;;;;;;;20.13;9.85;;;;;;;23.91;53.18;99687.06;5094459;28;20400;-72
2022/06/28 02:13:32;;;;;;;15.13;8.27;;;;;;;23.94;53.51;99689.06;5077027;28;20474;-72
2022/06/28 02:16:02;;;;;;;11.23;7.50;;;;;;;23.95;53.49;99699.25;5107928;28;20047;-71
2022/06/28 02:18:31;;;;;;;13.73;7.50;;;;;;;23.93;53.61;99696.00;5114537;28;20502;-71
2022/06/28 02:20:58;;;;;;;14.48;7.75;;;;;;;23.92;53.50;99697.25;5114807;28;20561;-71
2022/06/28 02:23:25;;;;;;;13.30;7.47;;;;;;;23.94;53.78;99701.25;5114369;28;20100;-72
2022/06/28 02:25:52;;;;;;;14.98;7.95;;;;;;;23.97;53.63;99702.47;5094087;28;20059;-71
2022/06/28 02:28:19;;;;;;;11.70;7.50;;;;;;;23.92;53.55;99700.06;5094103;28;20059;-72
2022/06/28 02:30:46;;;;;;;10.68;7.50;;;;;;;23.92;53.66;99697.25;5093848;28;20048;-73
2022/06/28 02:33:13;;;;;;;13.13;7.93;;;;;;;23.96;53.48;99709.41;5094010;28;20063;-71
2022/06/28 02:41:11;;;;;;;9.20;7.80;;;;;;;24.13;52.60;99708.47;5073563;28;20049;-71
2022/06/28 02:43:38;;;;;;;10.70;7.53;;;;;;;24.20;52.09;99705.53;5073543;28;20079;-72
2022/06/28 02:46:07;;;;;;;;;;;;;;;24.16;51.79;99710.47;5073760;28;20052;-68
2022/06/28 02:48:34;;;;;;;11.88;7.30;;;;;;;24.25;51.34;99703.03;5073250;28;19998;-68
2022/06/28 02:51:01;;;;;;;12.80;6.72;;;;;;;24.36;50.97;99715.13;5073166;28;20135;-68
2022/06/28 02:53:28;;;;;;;16.13;7.63;;;;;;;24.40;50.89;99715.09;5072860;28;20059;-68
2022/06/28 02:55:55;;;;;;;12.02;7.60;;;;;;;24.44;50.44;99715.88;5073800;28;20053;-68
2022/06/28 02:58:22;;;;;;;12.07;8.15;;;;;;;24.47;50.73;99713.00;5073270;28;20056;-68
2022/06/28 03:00:49;;;;;;;12.48;7.47;;;;;;;24.53;50.13;99707.66;5073074;28;20118;-68
2022/06/28 03:03:16;;;;;;;11.40;7.45;;;;;;;24.58;50.14;99712.88;5089395;28;20470;-68
2022/06/28 03:05:43;;;;;;;15.52;7.47;;;;;;;24.60;49.91;99713.28;5076719;28;20093;-68
2022/06/28 03:08:10;;;;;;;14.25;7.68;;;;;;;24.66;49.63;99714.47;5072738;28;20576;-69
2022/06/28 03:10:38;;;;;;;11.48;7.95;;;;;;;24.70;49.59;99723.75;5073088;28;20050;-68
2022/06/28 03:13:05;;;;;;;11.60;7.07;;;;;;;24.69;49.50;99722.16;5055042;28;20136;-68
2022/06/28 03:15:32;;;;;;;12.13;7.43;;;;;;;24.65;49.25;99724.22;5072608;28;20427;-68
2022/06/28 03:17:59;;;;;;;14.98;7.05;;;;;;;24.67;49.52;99727.44;5073051;28;20051;-68
2022/06/28 03:20:28;;;;;;;10.30;6.65;;;;;;;24.65;49.53;99727.06;5073407;28;20048;-70
2022/06/28 03:22:56;;;;;;;10.88;7.53;;;;;;;24.63;49.27;99729.50;5072729;28;20048;-68
2022/06/28 03:25:23;;;;;;;9.40;7.10;;;;;;;24.73;49.28;99742.84;5072724;28;20522;-73
2022/06/28 03:27:50;;;;;;;13.73;7.60;;;;;;;24.80;48.88;99739.91;5071628;28;20049;-73
2022/06/28 03:30:17;;;;;;;14.30;7.88;;;;;;;24.88;48.48;99747.13;5072790;28;20143;-71
2022/06/28 03:32:44;;;;;;;13.80;7.60;;;;;;;24.91;48.71;99744.25;5072646;28;20072;-71
2022/06/28 03:35:13;;;;;;;15.48;7.28;;;;;;;24.92;48.43;99747.91;5072737;28;20423;-71
2022/06/28 03:37:40;;;;;;;10.90;7.22;;;;;;;24.92;48.41;99754.41;5072870;28;20048;-71
2022/06/28 03:40:09;;;;;;;11.75;7.43;;;;;;;24.93;48.22;99755.22;5096893;28;20058;-71
2022/06/28 03:42:36;;;;;;;11.55;7.35;;;;;;;24.95;47.99;99752.75;5113096;28;20130;-71
2022/06/28 03:45:04;;;;;;;11.32;7.28;;;;;;;25.13;47.62;99742.75;5113249;28;20093;-73
2022/06/28 03:47:31;;;;;;;14.45;7.85;;;;;;;25.47;46.56;99739.91;5113357;28;20494;-72
2022/06/28 03:49:58;;;;;;;11.45;7.65;;;;;;;25.84;45.82;99739.78;5095044;28;20135;-72
2022/06/28 03:52:31;;;;;;;10.38;7.00;;;;;;;26.04;45.63;99739.91;5112835;28;20067;-73
2022/06/28 03:54:59;;;;;;;12.88;7.07;;;;;;;26.11;44.93;99746.28;5112874;28;20084;-71
2022/06/28 03:57:26;;;;;;;11.20;7.35;;;;;;;26.12;45.21;99747.94;5112827;28;20139;-71
2022/06/28 03:59:56;;;;;;;11.07;7.30;;;;;;;26.07;45.18;99748.41;5094761;28;20130;-71
2022/06/28 04:02:23;;;;;;;13.07;7.30;;;;;;;26.03;45.06;99739.13;5111770;28;20134;-72
2022/06/28 04:04:51;;;;;;;10.45;7.18;;;;;;;26.06;45.10;99743.94;5077073;28;20052;-72
2022/06/28 04:07:18;;;;;;;9.90;6.78;;;;;;;25.96;45.68;99739.19;5058392;28;20080;-72
2022/06/28 04:09:44;;;;;;;15.52;7.55;;;;;;;25.99;45.63;99746.09;5076165;28;20154;-72
2022/06/28 04:12:11;;;;;;;9.05;6.13;;;;;;;26.09;45.40;99742.28;5076627;28;20055;-71
2022/06/28 04:14:38;;;;;;;10.57;6.78;;;;;;;26.13;45.32;99752.38;5108551;28;20474;-72
2022/06/28 04:17:05;;;;;;;10.73;6.57;;;;;;;26.25;44.84;99751.78;5116961;28;20051;-72
2022/06/28 04:19:33;;;;;;;9.93;6.45;;;;;;;26.30;44.71;99753.31;5116904;28;20397;-72
2022/06/28 04:22:00;;;;;;;8.32;6.05;;;;;;;26.40;44.19;99749.47;5116828;28;20048;-74
2022/06/28 04:24:27;;;;;;;14.35;6.45;;;;;;;26.54;43.98;99757.78;5116981;28;20050;-74
2022/06/28 04:26:54;;;;;;;14.07;6.13;;;;;;;26.65;43.69;99758.44;5116494;28;20058;-74
2022/06/28 04:29:21;;;;;;;10.90;6.28;;;;;;;26.83;43.41;99763.81;5116422;28;20130;-74
2022/06/28 04:31:48;;;;;;;10.57;6.28;;;;;;;26.94;42.61;99758.72;5116710;28;20051;-74
2022/06/28 04:34:15;;;;;;;10.95;5.78;;;;;;;27.11;42.46;99757.56;5116903;28;20048;-74
2022/06/28 04:36:42;;;;;;;8.73;6.63;;;;;;;27.15;42.22;99759.09;5116565;28;20471;-74
2022/06/28 04:39:09;;;;;;;11.57;5.80;;;;;;;27.13;41.71;99764.44;5116365;28;20410;-74
2022/06/28 04:41:41;;;;;;;7.45;5.68;;;;;;;27.07;41.92;99766.19;5099315;28;20039;-74
2022/06/28 04:44:08;;;;;;;8.75;5.68;;;;;;;27.14;41.59;99762.41;5098017;28;20051;-76
2022/06/28 04:46:35;;;;;;;12.63;6.53;;;;;;;27.01;41.89;99758.56;5116462;28;20400;-74
2022/06/28 04:49:07;;;;;;;7.88;5.25;;;;;;;26.98;41.77;99756.59;5116355;28;20082;-73
2022/06/28 04:51:34;;;;;;;9.70;5.78;;;;;;;27.09;41.87;99763.72;5106221;28;20149;-74
2022/06/28 04:54:01;;;;;;;9.38;5.85;;;;;;;27.04;41.63;99767.06;5095339;28;20451;-72
2022/06/28 04:56:28;;;;;;;9.02;6.13;;;;;;;26.78;42.35;99765.13;5095794;28;20051;-68
2022/06/28 04:58:55;;;;;;;7.85;6.13;;;;;;;26.66;42.55;99766.56;5095559;28;20051;-68
2022/06/28 05:01:24;;;;;;;14.52;6.32;;;;;;;26.62;42.67;99782.94;5095548;28;20059;-68
2022/06/28 05:03:51;;;;;;;12.20;6.65;;;;;;;26.51;42.92;99770.88;5095488;28;20052;-69
2022/06/28 05:06:18;;;;;;;9.38;6.45;;;;;;;26.45;43.48;99777.53;5095676;28;20139;-69
2022/06/28 05:08:52;;;;;;;10.68;6.53;;;;;;;26.71;42.99;99780.31;5094493;28;20138;-69
2022/06/28 05:11:33;;;;;;;10.90;7.00;;;;;;;26.90;42.91;99775.09;5079564;28;20086;-69
2022/06/28 05:14:00;;;;;;;15.88;7.00;;;;;;;27.37;41.95;99776.63;5095076;28;20098;-69
2022/06/28 05:16:27;;;;;;;10.10;6.57;;;;;;;27.76;41.44;99770.84;5095591;28;20522;-69
2022/06/28 05:18:54;;;;;;;8.73;6.65;;;;;;;28.03;40.70;99768.63;5095457;28;20083;-69
2022/06/28 05:21:21;;;;;;;12.13;6.70;;;;;;;28.01;40.59;99771.91;5095262;28;20052;-69
2022/06/28 05:23:47;;;;;;;8.30;6.30;;;;;;;27.86;40.69;99766.97;5094833;28;20047;-68
2022/06/28 05:26:17;;;;;;;12.90;6.38;;;;;;;27.56;41.00;99772.97;5095154;28;20506;-70
2022/06/28 05:28:44;;;;;;;9.82;6.80;;;;;;;27.74;40.78;99774.16;5094900;28;20143;-69
2022/06/28 05:31:13;;;;;;;17.15;7.38;;;;;;;28.08;40.16;99765.22;5094903;28;20082;-70
2022/06/28 05:33:40;;;;;;;;;;;;;;;28.24;39.99;99768.13;5095428;28;20058;-67
2022/06/28 05:36:07;;;;;;;9.45;5.85;;;;;;;28.60;39.00;99763.13;5094895;28;20086;-68
2022/06/28 05:38:36;;;;;;;11.25;6.18;;;;;;;28.78;38.36;99771.25;5094807;28;20054;-67
2022/06/28 05:41:03;;;;;;;15.70;5.93;;;;;;;29.04;37.88;99770.13;5094785;28;20051;-68
2022/06/28 05:43:31;;;;;;;9.75;5.80;;;;;;;29.09;37.69;99766.72;5094518;28;20093;-68
2022/06/28 05:45:57;;;;;;;8.70;5.50;;;;;;;29.17;37.48;99773.88;5094757;28;20143;-67
2022/06/28 05:48:24;;;;;;;8.85;5.68;;;;;;;29.18;37.22;99776.28;5094583;28;20056;-68
2022/06/28 05:50:52;;;;;;;10.48;5.70;;;;;;;29.09;36.87;99773.25;5094687;28;20048;-68
2022/06/28 05:53:19;;;;;;;7.22;5.07;;;;;;;29.15;36.70;99764.91;5094208;28;20084;-73
2022/06/28 05:55:46;;;;;;;19.95;5.80;;;;;;;29.34;36.42;99779.06;5094605;28;20133;-74
2022/06/28 05:58:13;;;;;;;12.20;5.93;;;;;;;29.39;36.46;99781.38;5094439;28;20471;-73
2022/06/28 06:00:40;;;;;;;10.75;5.70;;;;;;;29.40;36.49;99788.72;5094486;28;20131;-76
2022/06/28 06:03:07;;;;;;;13.65;6.03;;;;;;;29.48;36.43;99784.41;5094356;28;20048;-69
2022/06/28 06:05:33;;;;;;;10.13;5.28;;;;;;;29.78;36.27;99774.53;5094435;28;20146;-69
2022/06/28 06:08:00;;;;;;;7.57;4.85;;;;;;;30.02;35.34;99784.44;5094227;28;20052;-69
2022/06/28 06:10:27;;;;;;;16.23;4.97;;;;;;;30.20;35.06;99781.81;5075894;28;20044;-69
2022/06/28 06:12:54;;;;;;;8.48;4.55;;;;;;;30.60;34.47;99774.28;5073893;28;20047;-69
2022/06/28 06:15:21;;;;;;;6.45;4.32;;;;;;;31.89;32.12;99782.31;5073865;28;20136;-68
2022/06/28 06:17:48;;;;;;;6.25;4.72;;;;;;;34.47;27.82;99784.75;5073536;28;20053;-75
2022/06/28 06:20:15;;;;;;;10.43;4.15;;;;;;;37.07;24.50;99784.69;5074006;28;20052;-73
2022/06/28 06:22:42;;;;;;;7.43;4.00;;;;;;;36.81;23.80;99775.09;5074275;28;20044;-75
2022/06/28 06:25:10;;;;;;;9.77;4.47;;;;;;;35.67;25.12;99777.09;5073244;28;20040;-73
2022/06/28 06:27:37;;;;;;;10.43;4.30;;;;;;;34.85;26.09;99774.09;5073792;28;20098;-75
2022/06/28 06:30:15;;;;;;;6.93;4.57;;;;;;;34.02;27.17;99782.00;5111161;27;20384;-74
2022/06/28 06:32:43;;;;;;;9.98;5.05;;;;;;;33.47;28.05;99773.44;5110152;28;20070;-68
2022/06/28 06:35:10;;;;;;;21.33;5.75;;;;;;;33.02;28.69;99776.31;5110374;28;20410;-68
2022/06/28 06:37:37;;;;;;;9.95;5.43;;;;;;;32.17;29.85;99778.28;5110208;28;20047;-69
2022/06/28 06:40:05;;;;;;;7.82;5.03;;;;;;;31.48;31.09;99774.03;5098842;28;20053;-68
2022/06/28 06:42:32;;;;;;;8.18;4.65;;;;;;;31.13;31.68;99778.19;5093818;28;20096;-68
2022/06/28 06:45:00;;;;;;;16.38;4.70;;;;;;;31.05;31.13;99768.22;5110060;28;20055;-69
2022/06/28 06:47:29;;;;;;;5.47;3.95;;;;;;;31.33;30.90;99787.31;5110670;28;20083;-69
2022/06/28 06:49:56;;;;;;;9.38;4.57;;;;;;;31.96;29.74;99787.78;5110185;28;20044;-69
2022/06/28 06:52:23;;;;;;;8.30;5.15;;;;;;;32.93;28.11;99784.97;5110056;28;20105;-68
2022/06/28 06:54:50;;;;;;;7.05;4.38;;;;;;;35.68;24.29;99778.72;5109670;28;20047;-68
2022/06/28 06:57:20;;;;;;;12.88;4.13;;;;;;;39.23;19.97;99774.56;5109689;28;20047;-70
2022/06/28 06:59:47;;;;;;;10.05;3.97;;;;;;;42.41;17.03;99797.03;5109572;28;20677;-70
2022/06/28 07:02:14;;;;;;;14.48;4.80;;;;;;;44.83;14.52;99794.28;5107283;28;20040;-71
2022/06/28 07:04:41;;;;;;;15.50;4.75;;;;;;;46.38;13.60;99799.13;5089360;28;20561;-68
2022/06/28 07:07:08;;;;;;;23.67;10.15;;;;;;;47.91;12.23;99797.50;5089399;28;20142;-69
2022/06/28 07:09:35;;;;;;;10.93;3.88;;;;;;;49.34;11.41;99801.34;5089035;28;20074;-69
2022/06/28 07:12:02;;;;;;;7.70;3.30;;;;;;;50.55;10.28;99803.72;5089377;28;20048;-71
2022/06/28 07:14:29;;;;;;;10.93;4.03;;;;;;;50.82;9.78;99808.44;5088743;28;20079;-69
2022/06/28 07:16:56;;;;;;;10.60;4.03;;;;;;;51.82;8.87;99807.56;5087445;28;20075;-70
2022/06/28 07:19:23;;;;;;;10.25;3.97;;;;;;;52.96;8.51;99806.66;5089367;28;20082;-70
2022/06/28 07:21:50;;;;;;;17.10;4.47;;;;;;;53.37;7.77;99802.53;5090005;28;20056;-70
2022/06/28 07:24:17;;;;;;;;;;;;;;;53.38;8.42;99807.06;5089267;28;20163;-69
2022/06/28 07:26:44;;;;;;;9.75;3.60;;;;;;;54.07;7.34;99802.81;5088913;28;19925;-70
2022/06/28 07:29:14;;;;;;;9.02;3.72;;;;;;;54.69;6.82;99803.72;5088802;28;20052;-74
2022/06/28 07:31:41;;;;;;;7.50;3.25;;;;;;;54.12;7.24;99803.91;5088963;28;20076;-71
2022/06/28 07:34:11;;;;;;;12.55;3.75;;;;;;;53.89;7.15;99806.63;5088768;28;20052;-71
2022/06/28 07:36:40;;;;;;;7.93;3.83;;;;;;;54.20;6.97;99815.69;5089099;28;20052;-72
2022/06/28 07:39:08;;;;;;;8.68;3.50;;;;;;;54.09;7.20;99817.09;5088809;28;20047;-71
2022/06/28 07:41:35;;;;;;;11.60;3.50;;;;;;;54.22;6.58;99810.66;5075371;28;20052;-72
2022/06/28 07:44:02;;;;;;;8.05;3.40;;;;;;;54.76;6.48;99810.94;5075269;28;20056;-72
2022/06/28 07:46:29;;;;;;;11.98;3.25;;;;;;;55.35;5.83;99817.50;5075163;28;20053;-73
2022/06/28 07:48:56;;;;;;;12.55;3.42;;;;;;;55.41;5.96;99820.13;5074946;28;20049;-72
2022/06/28 07:54:09;;;;;;;8.83;3.37;;;;;;;55.97;5.74;99820.28;5090782;28;20423;-71
2022/06/28 07:56:36;;;;;;;11.75;3.03;;;;;;;56.54;5.40;99825.66;5095359;28;20305;-72
2022/06/28 07:59:03;;;;;;;7.70;3.42;;;;;;;56.71;5.01;99832.09;5095197;28;20513;-72
2022/06/28 08:01:30;;;;;;;7.90;3.33;;;;;;;57.35;4.65;99831.66;5095085;28;20052;-73
2022/06/28 08:03:57;;;;;;;24.25;5.10;;;;;;;58.06;4.33;99831.56;5078478;28;20135;-73
2022/06/28 08:06:24;;;;;;;5.35;3.65;;;;;;;57.66;4.81;99826.91;5073392;28;20066;-72
2022/06/28 08:08:51;;;;;;;8.40;3.85;;;;;;;57.26;4.20;99821.38;5074607;28;20094;-72
2022/06/28 08:11:18;;;;;;;11.70;3.47;;;;;;;57.06;4.37;99832.84;5074851;28;20070;-72
2022/06/28 08:13:48;;;;;;;6.43;3.22;;;;;;;56.85;4.38;99829.97;5075060;28;20566;-72
2022/06/28 08:16:15;;;;;;;7.38;4.13;;;;;;;56.81;4.48;99837.91;5074610;28;20056;-72
2022/06/28 08:18:43;;;;;;;11.00;3.50;;;;;;;57.59;4.35;99833.94;5074127;28;20040;-73
2022/06/28 08:21:15;;;;;;;9.63;3.67;;;;;;;57.87;4.23;99835.69;5074527;28;20063;-73
2022/06/28 08:23:42;;;;;;;15.15;3.20;;;;;;;58.02;3.91;99837.28;5074296;28;20143;-72
2022/06/28 08:26:09;;;;;;;18.27;8.02;;;;;;;58.81;4.07;99833.69;5074346;28;20052;-72
2022/06/28 08:28:39;;;;;;;4.65;2.95;;;;;;;59.35;3.14;99845.72;5074109;28;20052;-71
2022/06/28 08:31:06;;;;;;;11.00;3.33;;;;;;;59.36;3.77;99845.06;5074003;28;20492;-71
2022/06/28 08:33:33;;;;;;;4.63;3.38;;;;;;;59.81;3.05;99845.97;5074140;28;20052;-73
2022/06/28 08:36:00;;;;;;;8.40;3.28;;;;;;;59.61;3.17;99850.16;5074278;28;20055;-72
2022/06/28 08:38:27;;;;;;;6.53;3.25;;;;;;;59.69;3.33;99848.34;5074077;28;20143;-72
2022/06/28 08:40:54;;;;;;;8.23;3.10;;;;;;;59.52;2.94;99851.94;5074018;28;20130;-72
2022/06/28 08:43:22;;;;;;;8.07;3.83;;;;;;;59.67;2.80;99835.47;5088847;28;20048;-71
2022/06/28 08:45:49;;;;;;;7.72;3.00;;;;;;;59.34;3.06;99838.97;5094242;28;20044;-72
2022/06/28 08:48:22;;;;;;;17.83;3.00;;;;;;;58.62;3.04;99840.84;5092248;28;20044;-71
2022/06/28 08:50:52;;;;;;;15.50;3.20;;;;;;;59.53;2.45;99843.69;5092296;28;20076;-72
2022/06/28 08:53:23;;;;;;;13.13;3.00;;;;;;;59.60;2.38;99842.59;5072916;28;20401;-72
2022/06/28 08:55:51;;;;;;;9.98;4.35;;;;;;;60.09;2.68;99844.44;5073854;28;20527;-71
2022/06/28 08:58:19;;;;;;;6.88;2.92;;;;;;;60.26;1.80;99837.03;5073880;28;20083;-73
2022/06/28 09:00:47;;;;;;;6.68;2.55;;;;;;;59.60;2.22;99840.38;5074039;28;20124;-71
2022/06/28 09:03:18;;;;;;;11.65;3.10;;;;;;;58.72;2.53;99837.69;5082168;28;20047;-72
2022/06/28 09:05:46;;;;;;;7.93;2.67;;;;;;;58.05;2.41;99833.75;5081585;28;20048;-71
2022/06/28 09:08:13;;;;;;;4.72;3.08;;;;;;;58.23;2.18;99834.84;5078277;28;20246;-73
2022/06/28 09:10:40;;;;;;;10.90;2.88;;;;;;;58.37;2.73;99837.91;5086505;28;20127;-72
2022/06/28 09:13:19;;;;;;;8.15;4.32;;;;;;;59.20;2.20;99840.38;5077226;28;20044;-70
2022/06/28 09:15:55;;;;;;;13.05;3.20;;;;;;;59.59;2.50;99835.03;5087529;28;20090;-71
2022/06/28 09:18:25;;;;;;;9.18;2.80;;;;;;;59.35;2.94;99845.72;5076861;28;20112;-72
2022/06/28 09:20:55;;;;;;;14.38;3.20;;;;;;;60.14;1.77;99833.44;5075180;28;20045;-72
2022/06/28 09:23:25;;;;;;;14.95;3.20;;;;;;;60.80;1.65;99842.75;5086004;28;20546;-72
2022/06/28 09:25:56;;;;;;;7.13;2.83;;;;;;;60.29;1.52;99837.91;5088127;28;20086;-72
2022/06/28 09:28:28;;;;;;;16.98;4.05;;;;;;;59.98;2.27;99838.59;5088096;28;20052;-72
2022/06/28 09:31:18;;;;;;;4.90;2.95;;;;;;;59.62;2.15;99834.47;5078086;28;20510;-72
2022/06/28 09:34:04;;;;;;;12.57;3.03;;;;;;;59.94;1.98;99839.19;5074619;28;20055;-72
2022/06/28 09:36:37;;;;;;;5.78;2.75;;;;;;;59.11;2.49;99835.38;5075317;28;20564;-72
2022/06/28 09:39:18;;;;;;;5.95;1.80;;;;;;;53.81;4.14;99824.63;5076337;28;20101;-72
2022/06/28 09:41:50;;;;;;;9.23;1.80;;;;;;;47.54;6.95;99827.56;5076254;28;20102;-72
2022/06/28 09:44:40;;;;;;;3.88;1.38;;;;;;;43.44;9.29;99821.22;5075012;28;20533;-73
2022/06/28 09:47:07;;;;;;;6.30;1.58;;;;;;;40.77;10.49;99834.47;5079354;28;20059;-72
2022/06/28 09:49:41;;;;;;;5.25;1.30;;;;;;;39.06;12.05;99823.16;5079301;28;20553;-73
2022/06/28 09:52:11;;;;;;;4.00;1.48;;;;;;;37.75;12.78;99811.97;5073176;28;20151;-72
2022/06/28 09:54:42;;;;;;;6.25;1.40;;;;;;;36.58;13.74;99826.97;5079954;28;20055;-72
2022/06/28 09:57:12;;;;;;;14.25;3.70;;;;;;;35.52;14.86;99811.03;5076587;28;20048;-72
2022/06/28 09:59:40;;;;;;;7.28;1.40;;;;;;;34.50;15.97;99821.31;5073766;28;20127;-72
2022/06/28 10:02:13;;;;;;;3.13;1.40;;;;;;;33.93;16.23;99820.38;5068896;28;20483;-72
2022/06/28 10:04:41;;;;;;;9.63;1.52;;;;;;;33.38;16.47;99824.56;5078620;28;20519;-72
2022/06/28 10:07:15;;;;;;;6.85;1.52;;;;;;;33.09;16.91;99815.56;5071305;28;20068;-72
2022/06/28 10:09:43;;;;;;;7.30;1.70;;;;;;;32.51;17.29;99821.34;5083319;28;20051;-72
2022/06/28 10:15:01;;;;;;;3.40;1.65;;;;;;;31.71;17.68;99819.56;5091783;28;20518;-69
2022/06/28 10:17:48;;;;;;;4.43;1.55;;;;;;;31.46;18.18;99819.69;5074992;28;20048;-71
2022/06/28 10:20:22;;;;;;;3.35;1.52;;;;;;;31.55;17.88;99831.25;5085773;28;20136;-70
2022/06/28 10:22:52;;;;;;;5.57;1.42;;;;;;;31.40;17.67;99815.81;5077460;28;20075;-69
2022/06/28 10:25:24;;;;;;;13.85;1.75;;;;;;;31.10;17.74;99817.28;5076031;28;20142;-68
2022/06/28 10:27:53;;;;;;;3.70;1.35;;;;;;;30.82;17.53;99812.56;5082506;28;20068;-69
2022/06/28 10:30:21;;;;;;;3.27;1.43;;;;;;;30.82;17.81;99811.75;5072303;28;20050;-71
2022/06/28 10:32:52;;;;;;;5.45;1.30;;;;;;;30.65;17.70;99816.00;5093751;28;20047;-73
2022/06/28 10:35:42;;;;;;;10.85;1.48;;;;;;;30.36;17.70;99821.06;5074037;28;20052;-72
2022/06/28 10:38:10;;;;;;;2.45;1.58;;;;;;;30.10;18.39;99829.66;5065491;28;20064;-73
2022/06/28 10:40:49;;;;;;;7.65;1.48;;;;;;;30.23;18.11;99817.41;5077686;28;20480;-72
2022/06/28 10:43:25;;;;;;;6.68;1.67;;;;;;;30.31;17.88;99813.03;5076336;28;20048;-72
2022/06/28 10:46:07;;;;;;;3.22;1.15;;;;;;;30.29;17.92;99815.56;5070192;28;20129;-69
2022/06/28 10:48:49;;;;;;;3.30;1.42;;;;;;;30.13;18.14;99814.38;5086217;28;20060;-69
2022/06/28 10:51:18;;;;;;;3.67;1.85;;;;;;;30.04;18.03;99814.25;5071960;28;20090;-71
2022/06/28 10:53:57;;;;;;;2.45;1.45;;;;;;;29.83;18.51;99812.06;5075014;28;20048;-72
2022/06/28 10:56:25;;;;;;;12.32;1.58;;;;;;;29.55;19.33;99812.88;5084795;28;20491;-71
2022/06/28 10:58:59;;;;;;;6.82;1.33;;;;;;;29.42;19.59;99814.88;5074729;28;20053;-73
2022/06/28 11:01:44;;;;;;;5.40;1.60;;;;;;;29.51;19.50;99817.91;5072858;28;20447;-69
2022/06/28 11:04:18;;;;;;;7.22;1.45;;;;;;;29.35;19.58;99815.09;5073212;28;20048;-69
2022/06/28 11:06:47;;;;;;;4.63;1.30;;;;;;;29.30;19.43;99818.50;5071553;28;20127;-71
2022/06/28 11:09:48;;;;;;;3.72;1.17;;;;;;;29.26;19.83;99812.09;5077976;28;20070;-70
2022/06/28 11:12:22;;;;;;;5.20;1.42;;;;;;;29.29;19.57;99811.19;5086081;28;20470;-71
2022/06/28 11:14:57;;;;;;;6.75;1.58;;;;;;;29.44;19.36;99811.56;5082991;28;20503;-72
2022/06/28 11:17:41;;;;;;;7.45;2.00;;;;;;;29.55;19.45;99812.88;5085584;28;20037;-72
2022/06/28 11:20:19;;;;;;;6.35;1.23;;;;;;;29.51;20.05;99819.94;5088621;28;20052;-70
2022/06/28 11:22:50;;;;;;;7.63;1.80;;;;;;;29.46;19.81;99817.66;5087964;28;20045;-72
2022/06/28 11:28:56;;;;;;;5.88;1.52;;;;;;;29.62;20.27;99818.44;5079921;28;20056;-72
2022/06/28 11:31:25;;;;;;;12.50;1.67;;;;;;;29.70;20.19;99811.22;5081890;28;20499;-72
2022/06/28 11:33:53;;;;;;;5.47;1.48;;;;;;;29.73;19.72;99815.25;5084875;28;20078;-75
2022/06/28 11:36:31;;;;;;;7.25;1.30;;;;;;;29.55;19.41;99818.63;5082887;28;20053;-74
2022/06/28 11:39:23;;;;;;;4.50;1.08;;;;;;;29.34;19.43;99810.59;5083473;28;20478;-77
2022/06/28 11:41:58;;;;;;;4.00;1.10;;;;;;;29.44;19.47;99805.84;5078557;28;20048;-69
2022/06/28 11:44:26;;;;;;;6.55;1.20;;;;;;;29.42;19.79;99814.06;5080208;28;20148;-78
2022/06/28 11:46:54;;;;;;;2.97;1.10;;;;;;;29.24;19.80;99819.50;5079184;28;20040;-67
2022/06/28 11:49:34;;;;;;;8.20;1.48;;;;;;;28.99;20.92;99813.63;5076915;28;20054;-71
2022/06/28 11:52:01;;;;;;;3.15;1.20;;;;;;;28.90;20.96;99810.59;5078676;28;20534;-70
2022/06/28 11:54:28;;;;;;;2.25;1.27;;;;;;;28.75;20.84;99815.09;5080898;28;20764;-69
2022/06/28 11:57:13;;;;;;;10.88;1.45;;;;;;;28.70;20.69;99813.59;5077733;28;20053;-69
2022/06/28 11:59:56;;;;;;;8.73;1.60;;;;;;;28.69;20.34;99816.91;5077684;28;20033;-69